Time;durP1;ratioP1;P1;durP2;ratioP2;P2;SDS_P1;SDS_P2;PMS_P1;PMS_P2;Temp;Humidity;BMP_temperature;BMP_pressure;BME280_temperature;BME280_humidity;BME280_pressure;Samples;Min_cycle;Max_cycle;Signal;HPM_P1;HPM_P2
2023/01/22 00:00:40;;;;;;;16.47;11.77;;;;;;;;;;5061431;28;20229;-76
2023/01/22 00:03:07;;;;;;;13.83;9.73;;;;;;;;;;5066742;28;20198;-74
2023/01/22 00:05:34;;;;;;;14.53;10.53;;;;;;;;;;5052867;28;20216;-76
2023/01/22 00:08:02;;;;;;;15.10;10.20;;;;;;;;;;5067689;28;20202;-76
2023/01/22 00:10:31;;;;;;;16.37;10.50;;;;;;;;;;5070446;28;20227;-77
2023/01/22 00:12:58;;;;;;;16.87;10.83;;;;;;;;;;5045917;28;20292;-77
2023/01/22 00:15:25;;;;;;;17.87;10.83;;;;;;;;;;5048934;28;20209;-77
2023/01/22 00:17:53;;;;;;;15.30;10.20;;;;;;;;;;5059737;28;20277;-76
2023/01/22 00:20:20;;;;;;;16.30;10.37;;;;;;;;;;5059972;28;20264;-76
2023/01/22 00:22:50;;;;;;;15.57;10.93;;;;;;;;;;5070688;28;20208;-77
2023/01/22 00:25:17;;;;;;;14.67;11.00;;;;;;;;;;5061968;28;20202;-75
2023/01/22 00:27:44;;;;;;;15.83;11.17;;;;;;;;;;5052895;28;20198;-76
2023/01/22 00:30:12;;;;;;;18.13;11.20;;;;;;;;;;5042384;28;20229;-76
2023/01/22 00:32:39;;;;;;;15.93;11.87;;;;;;;;;;5045006;28;20642;-76
2023/01/22 00:35:07;;;;;;;19.23;12.80;;;;;;;;;;5044109;28;20202;-77
2023/01/22 00:37:34;;;;;;;17.53;11.87;;;;;;;;;;5040486;28;20212;-77
2023/01/22 00:40:01;;;;;;;17.30;11.63;;;;;;;;;;5042393;28;20658;-76
2023/01/22 00:42:28;;;;;;;16.50;11.50;;;;;;;;;;5038997;28;20206;-74
2023/01/22 00:44:58;;;;;;;14.90;11.17;;;;;;;;;;5045128;28;20203;-74
2023/01/22 00:47:26;;;;;;;16.93;11.40;;;;;;;;;;5042708;28;20193;-76
2023/01/22 00:49:53;;;;;;;18.87;11.47;;;;;;;;;;5039835;28;20303;-76
2023/01/22 00:52:20;;;;;;;16.67;11.63;;;;;;;;;;5044084;28;20205;-76
2023/01/22 00:54:47;;;;;;;16.20;11.97;;;;;;;;;;5036817;28;20221;-75
2023/01/22 00:57:18;;;;;;;18.60;12.53;;;;;;;;;;5042790;28;20209;-75
2023/01/22 00:59:45;;;;;;;16.83;11.73;;;;;;;;;;5037396;28;20252;-75
2023/01/22 01:02:13;;;;;;;18.17;11.60;;;;;;;;;;5042943;28;20270;-75
2023/01/22 01:04:40;;;;;;;19.73;13.03;;;;;;;;;;5039313;28;20282;-75
2023/01/22 01:07:08;;;;;;;16.70;11.13;;;;;;;;;;5042277;28;20217;-76
2023/01/22 01:09:37;;;;;;;20.13;12.93;;;;;;;;;;5043069;28;20832;-76
2023/01/22 01:12:04;;;;;;;20.57;12.63;;;;;;;;;;5046591;28;20214;-75
2023/01/22 01:14:35;;;;;;;19.93;12.97;;;;;;;;;;5045952;28;20205;-76
2023/01/22 01:17:03;;;;;;;18.57;13.10;;;;;;;;;;5050129;28;20260;-76
2023/01/22 01:19:30;;;;;;;18.10;12.47;;;;;;;;;;5045257;28;20214;-77
2023/01/22 01:21:57;;;;;;;20.93;12.80;;;;;;;;;;5042452;28;20250;-76
2023/01/22 01:24:25;;;;;;;24.00;13.27;;;;;;;;;;5048045;28;20213;-75
2023/01/22 01:26:52;;;;;;;21.97;13.90;;;;;;;;;;5045715;28;20216;-76
2023/01/22 01:29:19;;;;;;;18.10;12.97;;;;;;;;;;5044666;28;20763;-76
2023/01/22 01:31:51;;;;;;;19.10;12.63;;;;;;;;;;5047737;28;20217;-76
2023/01/22 01:34:19;;;;;;;20.43;13.50;;;;;;;;;;5050957;28;20769;-76
2023/01/22 01:36:46;;;;;;;19.90;12.73;;;;;;;;;;5065397;28;20202;-75
2023/01/22 01:39:16;;;;;;;23.17;13.87;;;;;;;;;;5056379;28;20197;-77
2023/01/22 01:41:43;;;;;;;25.03;14.50;;;;;;;;;;5063161;28;20295;-75
2023/01/22 01:44:18;;;;;;;21.73;13.03;;;;;;;;;;5052515;28;20210;-76
2023/01/22 01:46:59;;;;;;;21.87;13.57;;;;;;;;;;5045517;28;20221;-76
2023/01/22 01:49:43;;;;;;;22.17;13.20;;;;;;;;;;5048737;28;20194;-76
2023/01/22 01:52:11;;;;;;;21.87;13.43;;;;;;;;;;5045640;28;20209;-76
2023/01/22 01:54:40;;;;;;;25.70;15.30;;;;;;;;;;5048389;28;20209;-76
2023/01/22 01:57:09;;;;;;;24.97;13.47;;;;;;;;;;5049027;28;20683;-77
2023/01/22 01:59:37;;;;;;;22.27;14.60;;;;;;;;;;5042669;28;20205;-76
2023/01/22 02:02:05;;;;;;;25.90;14.70;;;;;;;;;;5044677;28;20285;-77
2023/01/22 02:04:32;;;;;;;27.50;15.67;;;;;;;;;;5049950;28;20198;-75
2023/01/22 02:07:00;;;;;;;35.60;14.97;;;;;;;;;;5049712;28;20233;-75
2023/01/22 02:09:27;;;;;;;36.00;16.67;;;;;;;;;;5055705;28;20646;-76
2023/01/22 02:11:54;;;;;;;33.43;15.40;;;;;;;;;;5066203;28;20248;-75
2023/01/22 02:14:25;;;;;;;23.37;13.67;;;;;;;;;;5057805;28;20276;-76
2023/01/22 02:16:59;;;;;;;27.63;14.37;;;;;;;;;;5062191;28;20210;-76
2023/01/22 02:19:26;;;;;;;29.07;14.93;;;;;;;;;;5053071;28;20202;-76
2023/01/22 02:21:54;;;;;;;26.23;14.87;;;;;;;;;;5052133;28;20304;-74
2023/01/22 02:24:22;;;;;;;31.40;16.37;;;;;;;;;;5045407;28;20273;-75
2023/01/22 02:26:51;;;;;;;27.10;14.83;;;;;;;;;;5044927;28;20206;-76
2023/01/22 02:29:18;;;;;;;29.93;14.93;;;;;;;;;;5041587;28;20222;-77
2023/01/22 02:31:45;;;;;;;25.30;14.80;;;;;;;;;;5046498;28;20377;-77
2023/01/22 02:34:13;;;;;;;53.53;15.73;;;;;;;;;;5044579;28;20284;-76
2023/01/22 02:36:40;;;;;;;41.07;15.40;;;;;;;;;;5045396;28;20205;-77
2023/01/22 02:39:08;;;;;;;38.80;16.07;;;;;;;;;;5046352;28;20236;-76
2023/01/22 02:41:35;;;;;;;29.27;16.10;;;;;;;;;;5043504;28;20236;-76
2023/01/22 02:44:02;;;;;;;35.73;15.67;;;;;;;;;;5047919;28;20208;-75
2023/01/22 02:46:29;;;;;;;32.37;14.33;;;;;;;;;;5039577;28;20205;-77
2023/01/22 02:48:57;;;;;;;31.43;15.53;;;;;;;;;;5048318;28;20217;-76
2023/01/22 02:51:25;;;;;;;61.27;15.07;;;;;;;;;;5059846;28;20290;-75
2023/01/22 02:53:53;;;;;;;62.93;15.90;;;;;;;;;;5060021;28;21249;-75
2023/01/22 02:56:22;;;;;;;31.20;15.07;;;;;;;;;;5043103;28;20205;-75
2023/01/22 02:58:50;;;;;;;44.83;15.30;;;;;;;;;;5046312;28;20210;-74
2023/01/22 03:01:19;;;;;;;33.93;15.10;;;;;;;;;;5043977;28;20232;-77
2023/01/22 03:03:48;;;;;;;61.53;16.37;;;;;;;;;;5044999;28;20591;-75
2023/01/22 03:06:20;;;;;;;46.43;15.83;;;;;;;;;;5049292;28;20308;-76
2023/01/22 03:08:48;;;;;;;36.70;15.73;;;;;;;;;;5042234;28;20237;-76
2023/01/22 03:11:16;;;;;;;38.37;14.60;;;;;;;;;;5047604;28;20221;-77
2023/01/22 03:22:03;;;;;;;36.73;15.00;;;;;;;;;;5041222;28;20358;-77
2023/01/22 03:24:30;;;;;;;42.57;14.33;;;;;;;;;;5046078;28;20298;-76
2023/01/22 03:26:57;;;;;;;69.63;15.97;;;;;;;;;;5045087;28;20216;-76
2023/01/22 03:29:24;;;;;;;33.50;15.07;;;;;;;;;;5041325;28;20205;-75
2023/01/22 03:31:52;;;;;;;35.37;15.50;;;;;;;;;;5044496;28;20213;-76
2023/01/22 03:34:20;;;;;;;73.13;15.10;;;;;;;;;;5056983;28;20707;-77
2023/01/22 03:36:47;;;;;;;55.17;13.87;;;;;;;;;;5060905;28;20209;-76
2023/01/22 03:39:14;;;;;;;31.53;14.37;;;;;;;;;;5060621;28;20229;-77
2023/01/22 03:41:42;;;;;;;56.40;16.07;;;;;;;;;;5061754;28;20234;-76
2023/01/22 03:44:10;;;;;;;65.70;14.80;;;;;;;;;;5055973;28;20210;-76
2023/01/22 03:46:41;;;;;;;40.03;15.50;;;;;;;;;;5053727;28;20554;-76
2023/01/22 03:49:09;;;;;;;60.27;18.03;;;;;;;;;;5049935;28;20208;-75
2023/01/22 03:51:36;;;;;;;67.30;14.50;;;;;;;;;;5044595;28;22947;-76
2023/01/22 03:54:03;;;;;;;31.00;14.20;;;;;;;;;;5046831;28;20668;-77
2023/01/22 03:56:31;;;;;;;52.10;15.63;;;;;;;;;;5042686;28;20202;-77
2023/01/22 03:58:59;;;;;;;55.73;15.67;;;;;;;;;;5045435;28;20273;-76
2023/01/22 04:01:27;;;;;;;67.10;14.90;;;;;;;;;;5040868;28;20962;-76
2023/01/22 04:03:54;;;;;;;44.40;14.63;;;;;;;;;;5046122;28;20283;-76
2023/01/22 04:06:22;;;;;;;64.87;15.07;;;;;;;;;;5040658;28;20202;-75
2023/01/22 04:08:51;;;;;;;44.17;14.47;;;;;;;;;;5055008;28;20202;-75
2023/01/22 04:11:18;;;;;;;52.73;13.53;;;;;;;;;;5061676;28;20222;-76
2023/01/22 04:13:45;;;;;;;26.43;13.07;;;;;;;;;;5056848;28;20213;-76
2023/01/22 04:16:13;;;;;;;33.43;13.60;;;;;;;;;;5062176;28;20202;-76
2023/01/22 04:18:41;;;;;;;61.93;14.70;;;;;;;;;;5051994;28;20260;-75
2023/01/22 04:21:09;;;;;;;48.47;14.37;;;;;;;;;;5046017;28;20225;-76
2023/01/22 04:23:36;;;;;;;51.63;14.13;;;;;;;;;;5042012;28;20202;-76
2023/01/22 04:26:03;;;;;;;35.97;13.97;;;;;;;;;;5042908;28;20351;-75
2023/01/22 04:28:31;;;;;;;40.13;14.53;;;;;;;;;;5038909;28;20213;-75
2023/01/22 04:30:58;;;;;;;39.57;14.50;;;;;;;;;;5045371;28;20235;-77
2023/01/22 04:33:26;;;;;;;57.37;13.40;;;;;;;;;;5036256;28;20289;-75
2023/01/22 04:35:54;;;;;;;61.87;13.40;;;;;;;;;;5043027;28;20205;-77
2023/01/22 04:38:21;;;;;;;39.80;13.57;;;;;;;;;;5044192;28;20252;-76
2023/01/22 04:40:49;;;;;;;42.80;15.00;;;;;;;;;;5040957;28;20225;-77
2023/01/22 04:43:17;;;;;;;39.73;14.03;;;;;;;;;;5038436;28;20275;-77
2023/01/22 04:45:44;;;;;;;29.33;12.93;;;;;;;;;;5045352;28;20403;-76
2023/01/22 04:48:12;;;;;;;48.47;12.23;;;;;;;;;;5036111;28;21320;-75
2023/01/22 04:50:40;;;;;;;30.87;13.50;;;;;;;;;;5041770;28;20445;-76
2023/01/22 04:53:07;;;;;;;50.87;14.83;;;;;;;;;;5045690;28;20309;-76
2023/01/22 04:55:34;;;;;;;31.63;13.27;;;;;;;;;;5037928;28;20679;-76
2023/01/22 04:58:03;;;;;;;45.10;13.83;;;;;;;;;;5043099;28;20214;-76
2023/01/22 05:00:30;;;;;;;45.17;12.07;;;;;;;;;;5038883;28;20227;-76
2023/01/22 05:02:58;;;;;;;55.73;14.40;;;;;;;;;;5042389;28;20210;-77
2023/01/22 05:05:26;;;;;;;28.70;13.00;;;;;;;;;;5039041;28;20198;-77
2023/01/22 05:07:54;;;;;;;36.37;12.43;;;;;;;;;;5042189;28;20207;-74
2023/01/22 05:10:21;;;;;;;27.17;12.13;;;;;;;;;;5040822;28;20230;-77
2023/01/22 05:12:49;;;;;;;31.00;12.30;;;;;;;;;;5046829;28;20206;-77
2023/01/22 05:15:16;;;;;;;27.30;12.67;;;;;;;;;;5041784;28;20310;-78
2023/01/22 05:17:51;;;;;;;40.17;13.97;;;;;;;;;;5047279;28;20201;-75
2023/01/22 05:20:19;;;;;;;32.37;13.33;;;;;;;;;;5043187;28;20795;-77
2023/01/22 05:22:46;;;;;;;37.33;13.50;;;;;;;;;;5042050;28;20229;-75
2023/01/22 05:25:14;;;;;;;29.43;12.13;;;;;;;;;;5044844;28;20219;-76
2023/01/22 05:27:41;;;;;;;33.53;12.20;;;;;;;;;;5043947;28;20200;-76
2023/01/22 05:30:09;;;;;;;42.83;13.23;;;;;;;;;;5039208;28;20348;-77
2023/01/22 05:32:36;;;;;;;41.60;12.63;;;;;;;;;;5044392;28;20202;-76
2023/01/22 05:35:04;;;;;;;36.17;12.93;;;;;;;;;;5055688;28;20217;-77
2023/01/22 05:37:32;;;;;;;35.07;13.23;;;;;;;;;;5062028;28;20201;-77
2023/01/22 05:39:59;;;;;;;26.23;12.30;;;;;;;;;;5066671;28;20242;-77
2023/01/22 05:42:26;;;;;;;32.60;12.77;;;;;;;;;;5069489;28;20225;-76
2023/01/22 05:44:53;;;;;;;31.77;13.67;;;;;;;;;;5048317;28;20556;-76
2023/01/22 05:47:20;;;;;;;26.00;12.77;;;;;;;;;;5045548;28;20221;-76
2023/01/22 05:49:48;;;;;;;27.47;13.00;;;;;;;;;;5040285;28;20260;-77
2023/01/22 05:52:15;;;;;;;30.20;13.03;;;;;;;;;;5044064;28;20206;-76
2023/01/22 05:54:42;;;;;;;26.30;13.03;;;;;;;;;;5043150;28;20728;-75
2023/01/22 05:57:10;;;;;;;26.40;12.43;;;;;;;;;;5045644;28;20265;-76
2023/01/22 05:59:37;;;;;;;29.07;12.47;;;;;;;;;;5037274;28;20322;-76
2023/01/22 06:02:04;;;;;;;24.47;12.80;;;;;;;;;;5042706;28;20225;-76
2023/01/22 06:04:32;;;;;;;24.00;12.13;;;;;;;;;;5039794;28;20233;-76
2023/01/22 06:06:59;;;;;;;27.73;13.37;;;;;;;;;;5044864;28;20203;-77
2023/01/22 06:09:26;;;;;;;22.67;11.67;;;;;;;;;;5041153;28;20216;-77
2023/01/22 06:11:54;;;;;;;22.27;11.87;;;;;;;;;;5043516;28;20229;-76
2023/01/22 06:14:21;;;;;;;24.57;12.63;;;;;;;;;;5039987;28;20216;-76
2023/01/22 06:16:48;;;;;;;23.63;12.50;;;;;;;;;;5046685;28;20301;-76
2023/01/22 06:19:16;;;;;;;22.67;12.77;;;;;;;;;;5044327;28;20297;-76
2023/01/22 06:21:43;;;;;;;21.83;12.37;;;;;;;;;;5041263;28;20838;-74
2023/01/22 06:24:10;;;;;;;26.27;13.80;;;;;;;;;;5041561;28;20326;-76
2023/01/22 06:26:38;;;;;;;26.40;14.20;;;;;;;;;;5040929;28;20215;-76
2023/01/22 06:29:05;;;;;;;24.10;12.50;;;;;;;;;;5038326;28;20193;-76
2023/01/22 06:31:32;;;;;;;20.87;11.53;;;;;;;;;;5043726;28;20225;-75
2023/01/22 06:34:00;;;;;;;19.80;10.50;;;;;;;;;;5041491;28;20314;-75
2023/01/22 06:36:27;;;;;;;21.33;12.47;;;;;;;;;;5043610;28;20213;-76
2023/01/22 06:38:55;;;;;;;25.97;13.43;;;;;;;;;;5046303;28;20236;-75
2023/01/22 06:41:22;;;;;;;23.30;12.07;;;;;;;;;;5041815;28;20228;-74
2023/01/22 06:43:49;;;;;;;20.03;10.77;;;;;;;;;;5043193;28;20259;-75
2023/01/22 06:46:17;;;;;;;21.00;11.03;;;;;;;;;;5041147;28;20208;-75
2023/01/22 06:48:45;;;;;;;25.57;12.40;;;;;;;;;;5041247;28;20259;-76
2023/01/22 06:51:15;;;;;;;21.57;11.93;;;;;;;;;;5046239;28;21319;-74
2023/01/22 06:53:43;;;;;;;21.40;12.07;;;;;;;;;;5045475;28;20201;-75
2023/01/22 06:56:10;;;;;;;22.57;12.27;;;;;;;;;;5038925;28;20293;-77
2023/01/22 06:58:37;;;;;;;21.17;11.97;;;;;;;;;;5044295;28;20223;-76
2023/01/22 07:01:05;;;;;;;22.47;12.30;;;;;;;;;;5043396;28;20240;-77
2023/01/22 07:03:32;;;;;;;23.93;12.47;;;;;;;;;;5043277;28;21730;-77
2023/01/22 07:06:01;;;;;;;22.17;12.50;;;;;;;;;;5045533;28;20201;-76
2023/01/22 07:08:28;;;;;;;23.73;13.10;;;;;;;;;;5042884;28;20208;-74
2023/01/22 07:10:56;;;;;;;27.43;14.77;;;;;;;;;;5047011;28;20319;-77
2023/01/22 07:13:23;;;;;;;123.43;51.83;;;;;;;;;;5044963;28;20209;-77
2023/01/22 07:15:50;;;;;;;124.70;55.93;;;;;;;;;;5050715;28;20209;-77
2023/01/22 07:18:19;;;;;;;46.93;23.73;;;;;;;;;;5045886;28;20259;-76
2023/01/22 07:20:47;;;;;;;23.67;13.23;;;;;;;;;;5040306;28;20234;-77
2023/01/22 07:23:14;;;;;;;21.33;12.23;;;;;;;;;;5049100;28;20222;-76
2023/01/22 07:25:43;;;;;;;19.63;11.63;;;;;;;;;;5042936;28;20230;-75
2023/01/22 07:28:13;;;;;;;21.47;11.80;;;;;;;;;;5047778;28;20204;-75
2023/01/22 07:30:41;;;;;;;21.47;11.60;;;;;;;;;;5046208;28;20240;-76
2023/01/22 07:33:10;;;;;;;18.47;10.93;;;;;;;;;;5047476;28;20210;-78
2023/01/22 07:35:37;;;;;;;18.60;10.77;;;;;;;;;;5060982;28;20309;-77
2023/01/22 07:38:04;;;;;;;19.37;11.17;;;;;;;;;;5062147;28;20202;-76
2023/01/22 07:40:31;;;;;;;16.63;9.43;;;;;;;;;;5059379;28;20288;-77
2023/01/22 07:42:59;;;;;;;19.33;11.30;;;;;;;;;;5065087;28;20218;-76
2023/01/22 07:45:26;;;;;;;17.87;10.00;;;;;;;;;;5048815;28;20210;-77
2023/01/22 07:47:54;;;;;;;17.17;10.03;;;;;;;;;;5044620;28;20203;-77
2023/01/22 07:50:22;;;;;;;20.87;11.20;;;;;;;;;;5047561;28;20250;-77
2023/01/22 07:52:50;;;;;;;17.97;9.87;;;;;;;;;;5049249;28;20208;-77
2023/01/22 07:55:17;;;;;;;17.03;11.13;;;;;;;;;;5046028;28;20243;-76
2023/01/22 07:57:44;;;;;;;16.80;10.80;;;;;;;;;;5059796;28;20206;-77
2023/01/22 08:00:12;;;;;;;21.53;12.23;;;;;;;;;;5061771;28;20279;-76
2023/01/22 08:02:40;;;;;;;23.23;12.67;;;;;;;;;;5055991;28;20690;-76
2023/01/22 08:05:08;;;;;;;24.90;12.73;;;;;;;;;;5056213;28;20324;-77
2023/01/22 08:07:36;;;;;;;21.03;12.70;;;;;;;;;;5065696;28;20690;-77
2023/01/22 08:10:04;;;;;;;22.40;11.43;;;;;;;;;;5065696;28;20229;-77
2023/01/22 08:12:31;;;;;;;23.63;12.17;;;;;;;;;;5056121;28;20265;-76
2023/01/22 08:14:59;;;;;;;22.63;12.83;;;;;;;;;;5047835;28;20215;-77
2023/01/22 08:17:26;;;;;;;24.67;13.30;;;;;;;;;;5048434;28;20624;-76
2023/01/22 08:19:53;;;;;;;26.33;15.83;;;;;;;;;;5051705;28;20242;-77
2023/01/22 08:22:21;;;;;;;21.53;12.90;;;;;;;;;;5043720;28;20252;-78
2023/01/22 08:24:52;;;;;;;20.20;11.97;;;;;;;;;;5048957;28;20218;-76
2023/01/22 08:27:20;;;;;;;18.00;11.37;;;;;;;;;;5045984;28;20208;-77
2023/01/22 08:29:51;;;;;;;15.00;10.10;;;;;;;;;;5047531;28;20265;-77
2023/01/22 08:32:19;;;;;;;16.17;9.47;;;;;;;;;;5048934;28;20195;-77
2023/01/22 08:34:46;;;;;;;15.53;9.70;;;;;;;;;;5040304;28;21435;-75
2023/01/22 08:37:13;;;;;;;16.10;9.57;;;;;;;;;;5050163;28;20217;-76
2023/01/22 08:39:40;;;;;;;15.97;9.40;;;;;;;;;;5043680;28;20202;-76
2023/01/22 08:42:07;;;;;;;15.07;9.70;;;;;;;;;;5048419;28;20659;-75
2023/01/22 08:44:35;;;;;;;16.07;9.43;;;;;;;;;;5047561;28;20733;-75
2023/01/22 08:47:02;;;;;;;19.53;11.47;;;;;;;;;;5049898;28;20203;-76
2023/01/22 08:49:29;;;;;;;17.00;9.97;;;;;;;;;;5044941;28;20348;-77
2023/01/22 08:51:57;;;;;;;13.57;8.87;;;;;;;;;;5044879;28;20771;-77
2023/01/22 08:54:25;;;;;;;13.77;9.00;;;;;;;;;;5049638;28;20210;-77
2023/01/22 08:56:52;;;;;;;16.00;10.07;;;;;;;;;;5042685;28;20217;-75
2023/01/22 08:59:19;;;;;;;16.13;9.07;;;;;;;;;;5049664;28;20210;-77
2023/01/22 09:01:46;;;;;;;14.80;8.90;;;;;;;;;;5044399;28;20239;-78
2023/01/22 09:04:14;;;;;;;17.50;10.10;;;;;;;;;;5048421;28;20197;-75
2023/01/22 09:06:41;;;;;;;13.57;9.17;;;;;;;;;;5043984;28;21638;-77
2023/01/22 09:09:08;;;;;;;15.10;9.63;;;;;;;;;;5046949;28;20207;-77
2023/01/22 09:11:36;;;;;;;14.30;8.87;;;;;;;;;;5047792;28;20225;-78
2023/01/22 09:14:03;;;;;;;13.33;9.47;;;;;;;;;;5048716;28;20291;-77
2023/01/22 09:16:32;;;;;;;12.70;8.97;;;;;;;;;;5049397;28;20240;-76
2023/01/22 09:18:59;;;;;;;14.03;8.80;;;;;;;;;;5049642;28;20220;-77
2023/01/22 09:21:26;;;;;;;14.90;8.97;;;;;;;;;;5044174;28;20235;-75
2023/01/22 09:23:54;;;;;;;12.87;8.47;;;;;;;;;;5051965;28;20201;-77
2023/01/22 09:26:21;;;;;;;13.63;8.93;;;;;;;;;;5045776;28;20776;-74
2023/01/22 09:28:48;;;;;;;14.97;9.20;;;;;;;;;;5051092;28;20301;-77
2023/01/22 09:31:16;;;;;;;12.80;8.47;;;;;;;;;;5050001;28;20297;-77
2023/01/22 09:33:43;;;;;;;14.27;8.90;;;;;;;;;;5056431;28;20290;-77
2023/01/22 09:36:15;;;;;;;14.43;9.17;;;;;;;;;;5064504;28;20290;-77
2023/01/22 09:38:42;;;;;;;18.60;12.30;;;;;;;;;;5067064;28;20216;-75
2023/01/22 09:41:14;;;;;;;20.53;13.77;;;;;;;;;;5073066;28;20258;-77
2023/01/22 09:43:53;;;;;;;20.10;12.57;;;;;;;;;;5064786;28;20251;-77
2023/01/22 09:46:35;;;;;;;19.53;11.00;;;;;;;;;;5042496;28;20293;-76
2023/01/22 09:49:07;;;;;;;14.53;9.20;;;;;;;;;;5045071;28;20207;-77
2023/01/22 09:51:34;;;;;;;15.37;8.87;;;;;;;;;;5043866;28;20241;-78
2023/01/22 09:54:04;;;;;;;23.43;12.90;;;;;;;;;;5045052;28;20674;-77
2023/01/22 09:56:50;;;;;;;16.17;10.40;;;;;;;;;;5049632;28;20206;-77
2023/01/22 09:59:19;;;;;;;14.20;8.80;;;;;;;;;;5045971;28;20227;-75
2023/01/22 10:01:48;;;;;;;9.90;7.13;;;;;;;;;;5043983;28;20240;-76
2023/01/22 10:04:26;;;;;;;9.30;7.40;;;;;;;;;;5052806;28;20676;-74
2023/01/22 10:06:56;;;;;;;13.40;8.90;;;;;;;;;;5053512;28;20295;-76
2023/01/22 10:09:23;;;;;;;14.03;9.70;;;;;;;;;;5048350;28;20209;-77
2023/01/22 10:11:52;;;;;;;13.77;9.60;;;;;;;;;;5053906;28;20224;-77
2023/01/22 10:14:20;;;;;;;13.67;9.57;;;;;;;;;;5046062;28;20803;-77
2023/01/22 10:16:48;;;;;;;14.43;9.93;;;;;;;;;;5053684;28;20290;-77
2023/01/22 10:19:15;;;;;;;14.93;9.63;;;;;;;;;;5052825;28;20204;-76
2023/01/22 10:21:45;;;;;;;12.30;9.10;;;;;;;;;;5056431;28;20813;-77
2023/01/22 10:24:12;;;;;;;13.57;9.07;;;;;;;;;;5051865;28;20233;-74
2023/01/22 10:26:51;;;;;;;11.77;8.77;;;;;;;;;;5053138;28;21780;-77
2023/01/22 10:29:32;;;;;;;9.27;7.57;;;;;;;;;;5047259;28;20209;-77
2023/01/22 10:31:59;;;;;;;17.10;13.17;;;;;;;;;;5051335;28;20287;-77
2023/01/22 10:34:32;;;;;;;15.53;10.77;;;;;;;;;;5046039;28;20205;-75
2023/01/22 10:37:02;;;;;;;17.53;11.73;;;;;;;;;;5053056;28;21606;-78
2023/01/22 10:39:43;;;;;;;31.17;19.70;;;;;;;;;;5050797;28;20212;-77
2023/01/22 10:42:16;;;;;;;15.77;10.20;;;;;;;;;;5048556;28;20217;-77
2023/01/22 10:44:43;;;;;;;12.37;9.37;;;;;;;;;;5049214;28;20209;-77
2023/01/22 10:47:19;;;;;;;15.97;11.70;;;;;;;;;;5046708;28;20943;-75
2023/01/22 10:49:47;;;;;;;9.23;6.93;;;;;;;;;;5046565;28;20206;-77
2023/01/22 10:52:23;;;;;;;8.17;6.37;;;;;;;;;;5044890;28;22048;-75
2023/01/22 10:54:53;;;;;;;8.07;6.27;;;;;;;;;;5049120;28;20216;-77
2023/01/22 10:57:22;;;;;;;8.43;6.23;;;;;;;;;;5047126;28;20214;-77
2023/01/22 10:59:54;;;;;;;8.00;6.40;;;;;;;;;;5041850;28;20237;-75
2023/01/22 11:02:23;;;;;;;10.13;6.73;;;;;;;;;;5049245;28;20217;-78
2023/01/22 11:04:51;;;;;;;8.97;6.83;;;;;;;;;;5045763;28;20629;-76
2023/01/22 11:07:20;;;;;;;7.57;5.77;;;;;;;;;;5050011;28;20237;-76
2023/01/22 11:10:15;;;;;;;11.07;7.00;;;;;;;;;;5043823;28;20202;-76
2023/01/22 11:12:44;;;;;;;9.17;6.03;;;;;;;;;;5051729;28;20205;-76
2023/01/22 11:15:20;;;;;;;9.93;6.87;;;;;;;;;;5045870;28;20230;-75
2023/01/22 11:17:50;;;;;;;10.30;7.10;;;;;;;;;;5048782;28;20209;-78
2023/01/22 11:20:32;;;;;;;16.17;10.60;;;;;;;;;;5043599;28;20239;-77
2023/01/22 11:23:15;;;;;;;22.67;14.83;;;;;;;;;;5049085;28;20228;-74
2023/01/22 11:26:05;;;;;;;12.60;8.30;;;;;;;;;;5048450;28;20291;-77
2023/01/22 11:28:32;;;;;;;11.10;7.93;;;;;;;;;;5045243;28;20209;-75
2023/01/22 11:31:06;;;;;;;10.80;7.67;;;;;;;;;;5047568;28;20224;-78
2023/01/22 11:33:42;;;;;;;10.17;7.60;;;;;;;;;;5052253;28;20201;-77
2023/01/22 11:36:24;;;;;;;11.27;7.20;;;;;;;;;;5069579;28;20254;-77
2023/01/22 11:38:52;;;;;;;11.17;7.33;;;;;;;;;;5060964;28;20201;-77
2023/01/22 11:41:26;;;;;;;9.53;6.83;;;;;;;;;;5063421;28;20278;-75
2023/01/22 11:43:56;;;;;;;11.10;8.17;;;;;;;;;;5056361;28;20225;-77
2023/01/22 11:46:24;;;;;;;9.63;7.03;;;;;;;;;;5047503;28;21153;-77
2023/01/22 11:48:51;;;;;;;11.63;7.60;;;;;;;;;;5041660;28;20584;-77
2023/01/22 11:51:38;;;;;;;16.23;10.00;;;;;;;;;;5047550;28;20229;-78
2023/01/22 11:54:20;;;;;;;12.00;7.53;;;;;;;;;;5047093;28;20698;-77
2023/01/22 11:57:06;;;;;;;11.77;7.50;;;;;;;;;;5050890;28;20292;-78
2023/01/22 11:59:52;;;;;;;11.20;6.93;;;;;;;;;;5065466;28;20217;-77
2023/01/22 12:02:33;;;;;;;9.87;7.07;;;;;;;;;;5061757;28;20220;-77
2023/01/22 12:05:09;;;;;;;11.03;7.67;;;;;;;;;;5060574;28;20199;-76
2023/01/22 12:07:46;;;;;;;9.43;6.90;;;;;;;;;;5051300;28;20241;-75
2023/01/22 12:10:25;;;;;;;10.27;7.40;;;;;;;;;;5052568;28;20221;-77
2023/01/22 12:13:07;;;;;;;15.43;10.87;;;;;;;;;;5046327;28;20225;-76
2023/01/22 12:15:47;;;;;;;13.93;8.83;;;;;;;;;;5049265;28;20247;-77
2023/01/22 12:18:26;;;;;;;9.40;7.20;;;;;;;;;;5052339;28;20198;-76
2023/01/22 12:21:08;;;;;;;9.07;6.53;;;;;;;;;;5043862;28;20259;-76
2023/01/22 12:23:35;;;;;;;8.93;7.20;;;;;;;;;;5048672;28;20233;-75
2023/01/22 12:26:06;;;;;;;9.17;7.00;;;;;;;;;;5041816;28;20205;-76
2023/01/22 12:28:40;;;;;;;9.83;5.90;;;;;;;;;;5046640;28;20624;-77
2023/01/22 12:31:14;;;;;;;8.63;6.70;;;;;;;;;;5046408;28;20221;-76
2023/01/22 12:33:43;;;;;;;10.50;7.57;;;;;;;;;;5048833;28;20201;-77
2023/01/22 12:36:12;;;;;;;9.63;6.87;;;;;;;;;;5048647;28;20344;-73
2023/01/22 12:38:39;;;;;;;9.23;6.13;;;;;;;;;;5046960;28;21065;-76
2023/01/22 12:41:25;;;;;;;9.03;6.13;;;;;;;;;;5049099;28;20241;-77
2023/01/22 12:43:52;;;;;;;8.63;6.23;;;;;;;;;;5045214;28;20225;-76
2023/01/22 12:46:42;;;;;;;7.87;5.63;;;;;;;;;;5048303;28;20205;-78
2023/01/22 12:49:15;;;;;;;7.40;5.63;;;;;;;;;;5046359;28;20221;-77
2023/01/22 12:51:49;;;;;;;12.50;7.87;;;;;;;;;;5043187;28;20246;-77
2023/01/22 12:54:29;;;;;;;7.50;5.20;;;;;;;;;;5047651;28;21206;-75
2023/01/22 12:57:19;;;;;;;7.53;6.07;;;;;;;;;;5048961;28;20202;-76
2023/01/22 12:59:48;;;;;;;7.53;5.87;;;;;;;;;;5035140;28;20236;-76
2023/01/22 13:02:23;;;;;;;8.83;6.00;;;;;;;;;;5042209;28;20217;-76
2023/01/22 13:04:50;;;;;;;8.67;6.23;;;;;;;;;;5044563;28;20205;-77
2023/01/22 13:07:23;;;;;;;6.83;5.70;;;;;;;;;;5043608;28;20209;-77
2023/01/22 13:10:22;;;;;;;5.90;5.00;;;;;;;;;;5045139;28;20221;-77
2023/01/22 13:12:51;;;;;;;7.40;5.90;;;;;;;;;;5047115;28;20201;-76
2023/01/22 13:15:24;;;;;;;7.10;5.73;;;;;;;;;;5046745;28;20212;-76
2023/01/22 13:17:57;;;;;;;8.17;5.77;;;;;;;;;;5047195;28;20206;-77
2023/01/22 13:20:34;;;;;;;9.07;5.53;;;;;;;;;;5040421;28;20373;-75
2023/01/22 13:23:03;;;;;;;9.03;6.43;;;;;;;;;;5044417;28;20210;-78
2023/01/22 13:25:31;;;;;;;7.70;6.30;;;;;;;;;;5041272;28;20212;-77
2023/01/22 13:28:00;;;;;;;6.33;5.73;;;;;;;;;;5048309;28;20737;-77
2023/01/22 13:30:29;;;;;;;7.50;6.23;;;;;;;;;;5043003;28;20234;-76
2023/01/22 13:33:04;;;;;;;10.27;6.63;;;;;;;;;;5046920;28;20201;-76
2023/01/22 13:35:34;;;;;;;10.07;7.07;;;;;;;;;;5059493;28;20667;-77
2023/01/22 13:38:02;;;;;;;9.60;7.27;;;;;;;;;;5050389;28;20206;-77
2023/01/22 13:40:29;;;;;;;9.47;7.10;;;;;;;;;;5071416;28;20225;-78
2023/01/22 13:43:18;;;;;;;9.67;7.30;;;;;;;;;;5073372;28;20209;-78
2023/01/22 13:45:45;;;;;;;9.37;6.63;;;;;;;;;;5056073;28;20292;-77
2023/01/22 13:48:17;;;;;;;10.33;7.03;;;;;;;;;;5046488;28;20229;-77
2023/01/22 13:50:52;;;;;;;7.37;6.47;;;;;;;;;;5044229;28;20312;-77
2023/01/22 13:53:28;;;;;;;7.50;6.10;;;;;;;;;;5040132;28;20210;-76
2023/01/22 13:55:56;;;;;;;8.53;6.63;;;;;;;;;;5044869;28;20292;-77
2023/01/22 13:58:35;;;;;;;10.70;7.57;;;;;;;;;;5047713;28;20212;-78
2023/01/22 14:01:26;;;;;;;11.17;7.67;;;;;;;;;;5046172;28;20236;-77
2023/01/22 14:04:00;;;;;;;12.23;7.87;;;;;;;;;;5043865;28;20283;-78
2023/01/22 14:06:28;;;;;;;12.97;8.27;;;;;;;;;;5039879;28;20233;-78
2023/01/22 14:08:56;;;;;;;11.87;8.27;;;;;;;;;;5045700;28;20213;-76
2023/01/22 14:11:23;;;;;;;11.73;7.53;;;;;;;;;;5040640;28;20282;-75
2023/01/22 14:13:51;;;;;;;12.73;8.50;;;;;;;;;;5046569;28;20329;-77
2023/01/22 14:16:19;;;;;;;18.03;10.13;;;;;;;;;;5044936;28;20209;-75
2023/01/22 14:18:50;;;;;;;17.13;10.27;;;;;;;;;;5046403;28;20209;-75
2023/01/22 14:21:17;;;;;;;17.33;10.37;;;;;;;;;;5044014;28;20228;-75
2023/01/22 14:23:45;;;;;;;22.20;12.53;;;;;;;;;;5044449;28;20238;-78
2023/01/22 14:26:12;;;;;;;17.67;10.60;;;;;;;;;;5045453;28;20206;-76
2023/01/22 14:28:40;;;;;;;11.93;7.37;;;;;;;;;;5043303;28;20220;-76
2023/01/22 14:31:07;;;;;;;11.23;7.90;;;;;;;;;;5043774;28;20225;-77
2023/01/22 14:33:35;;;;;;;12.37;8.43;;;;;;;;;;5044569;28;20201;-77
2023/01/22 14:36:02;;;;;;;14.07;9.00;;;;;;;;;;5043389;28;20201;-75
2023/01/22 14:38:30;;;;;;;12.37;8.20;;;;;;;;;;5044560;28;20206;-77
2023/01/22 14:40:57;;;;;;;10.20;7.90;;;;;;;;;;5044412;28;20259;-75
2023/01/22 14:43:25;;;;;;;12.13;8.17;;;;;;;;;;5040842;28;21514;-76
2023/01/22 14:45:53;;;;;;;11.23;7.97;;;;;;;;;;5044031;28;20718;-77